createdAt,value
2023-03-17T00:00:23.826Z,100356.34
2023-03-17T00:01:56.957Z,100358.41
2023-03-17T00:03:29.906Z,100361.13
2023-03-17T00:05:01.700Z,100354.78
2023-03-17T00:06:35.230Z,100358.31
2023-03-17T00:08:17.899Z,100347.97
2023-03-17T00:09:49.599Z,100339.19
2023-03-17T00:11:21.382Z,100337.53
2023-03-17T00:12:55.227Z,100333.94
2023-03-17T00:14:27.043Z,100328.69
2023-03-17T00:16:04.037Z,100326.88
2023-03-17T00:17:36.661Z,100327.03
2023-03-17T00:19:16.679Z,100324.44
2023-03-17T00:20:48.644Z,100321.56
2023-03-17T00:22:22.346Z,100320.06
2023-03-17T00:23:54.954Z,100320.06
2023-03-17T00:25:30.191Z,100317.34
2023-03-17T00:27:02.406Z,100315.59
2023-03-17T00:28:34.170Z,100311.13
2023-03-17T00:30:06.501Z,100312.94
2023-03-17T00:31:39.686Z,100307.75
2023-03-17T00:33:12.569Z,100304.22
2023-03-17T00:34:45.541Z,100311.53
2023-03-17T00:36:19.918Z,100307.91
2023-03-17T00:37:54.063Z,100300.00
2023-03-17T00:39:25.938Z,100298.31
2023-03-17T00:40:59.532Z,100294.53
2023-03-17T00:42:31.218Z,100288.50
2023-03-17T00:44:03.589Z,100288.41
2023-03-17T00:45:35.914Z,100286.75
2023-03-17T00:47:10.942Z,100289.41
2023-03-17T00:48:45.093Z,100288.34
2023-03-17T00:50:25.456Z,100281.28
2023-03-17T00:51:57.245Z,100275.03
2023-03-17T00:53:28.955Z,100277.84
2023-03-17T00:55:00.962Z,100274.38
2023-03-17T00:56:33.089Z,100275.94
2023-03-17T00:58:13.917Z,100267.50
2023-03-17T00:59:46.135Z,100270.78
2023-03-17T01:01:18.643Z,100266.41
2023-03-17T01:02:57.335Z,100263.84
2023-03-17T01:04:29.065Z,100269.38
2023-03-17T01:06:02.894Z,100262.19
2023-03-17T01:07:35.182Z,100260.63
2023-03-17T01:09:08.342Z,100258.72
2023-03-17T01:10:40.063Z,100250.81
2023-03-17T01:12:14.238Z,100247.16
2023-03-17T01:13:46.913Z,100240.88
2023-03-17T01:15:20.621Z,100247.91
2023-03-17T01:16:55.373Z,100241.19
2023-03-17T01:18:27.600Z,100240.88
2023-03-17T01:19:59.533Z,100238.38
2023-03-17T01:21:31.662Z,100239.06
2023-03-17T01:23:04.193Z,100246.03
2023-03-17T01:24:36.470Z,100239.16
2023-03-17T01:26:08.385Z,100245.34
2023-03-17T01:27:42.173Z,100242.84
2023-03-17T01:29:16.625Z,100237.41
2023-03-17T01:30:49.357Z,100242.59
2023-03-17T01:32:22.564Z,100239.78
2023-03-17T01:33:55.801Z,100233.84
2023-03-17T01:35:32.182Z,100235.44
2023-03-17T01:37:03.908Z,100224.91
2023-03-17T01:38:35.990Z,100221.44
2023-03-17T01:40:12.990Z,100223.50
2023-03-17T01:41:45.676Z,100221.75
2023-03-17T01:43:22.627Z,100222.59
2023-03-17T01:45:06.224Z,100198.63
2023-03-17T01:46:38.613Z,100208.28
2023-03-17T01:48:10.583Z,100207.34
2023-03-17T01:49:43.244Z,100203.06
2023-03-17T01:51:21.103Z,100208.38
2023-03-17T01:52:52.861Z,100203.91
2023-03-17T01:54:50.491Z,100201.31
2023-03-17T01:56:23.283Z,100207.50
2023-03-17T01:57:56.488Z,100212.84
2023-03-17T01:59:33.848Z,100205.94
2023-03-17T02:01:07.520Z,100206.63
2023-03-17T02:02:42.970Z,100199.53
2023-03-17T02:04:16.308Z,100193.41
2023-03-17T02:05:51.521Z,100196.94
2023-03-17T02:07:26.721Z,100191.69
2023-03-17T02:09:00.287Z,100191.53
2023-03-17T02:10:32.460Z,100191.53
2023-03-17T02:12:07.067Z,100188.25
2023-03-17T02:13:39.068Z,100181.19
2023-03-17T02:15:11.960Z,100190.75
2023-03-17T02:16:45.359Z,100179.31
2023-03-17T02:18:19.471Z,100183.94
2023-03-17T02:19:51.968Z,100183.78
2023-03-17T02:21:45.360Z,100182.06
2023-03-17T02:23:22.517Z,100173.06
2023-03-17T02:24:59.594Z,100180.34
2023-03-17T02:26:34.518Z,100180.34
2023-03-17T02:28:10.789Z,100176.75
2023-03-17T02:29:42.653Z,100174.94
2023-03-17T02:31:14.714Z,100171.31
2023-03-17T02:32:47.436Z,100177.44
2023-03-17T02:34:19.254Z,100172.19
2023-03-17T02:35:51.285Z,100173.81
2023-03-17T02:37:23.735Z,100172.91
2023-03-17T02:38:57.709Z,100170.09
2023-03-17T02:40:30.138Z,100186.66
2023-03-17T02:42:02.093Z,100183.84
2023-03-17T02:43:33.812Z,100181.97
2023-03-17T02:45:07.071Z,100178.25
2023-03-17T02:46:38.814Z,100171.22
2023-03-17T02:48:10.965Z,100174.75
2023-03-17T02:49:44.103Z,100177.34
2023-03-17T02:51:16.328Z,100171.84
2023-03-17T02:52:48.089Z,100169.25
2023-03-17T02:54:20.066Z,100172.69
2023-03-17T02:55:51.779Z,100173.56
2023-03-17T02:57:25.198Z,100175.28
2023-03-17T02:58:57.316Z,100172.59
2023-03-17T03:00:30.328Z,100169.19
2023-03-17T03:02:02.230Z,100167.38
2023-03-17T03:03:33.992Z,100160.94
2023-03-17T03:05:07.504Z,100160.94
2023-03-17T03:06:39.957Z,100153.91
2023-03-17T03:08:11.684Z,100155.69
2023-03-17T03:09:43.426Z,100160.94
2023-03-17T03:11:15.329Z,100156.56
2023-03-17T03:12:47.519Z,100149.41
2023-03-17T03:14:19.232Z,100155.53
2023-03-17T03:15:51.106Z,100150.28
2023-03-17T03:17:23.169Z,100144.00
2023-03-17T03:18:54.944Z,100152.94
2023-03-17T03:20:26.658Z,100147.63
2023-03-17T03:21:58.385Z,100152.94
2023-03-17T03:23:30.202Z,100156.56
2023-03-17T03:25:01.969Z,100153.03
2023-03-17T03:26:33.666Z,100160.06
2023-03-17T03:28:08.207Z,100167.22
2023-03-17T03:29:39.922Z,100159.06
2023-03-17T03:31:11.835Z,100168.75
2023-03-17T03:32:43.958Z,100169.94
2023-03-17T03:34:16.300Z,100172.88
2023-03-17T03:35:48.065Z,100173.41
2023-03-17T03:37:19.911Z,100174.25
2023-03-17T03:38:51.793Z,100183.72
2023-03-17T03:40:24.296Z,100181.13
2023-03-17T03:41:58.423Z,100179.53
2023-03-17T03:43:30.247Z,100176.75
2023-03-17T03:45:01.955Z,100172.38
2023-03-17T03:46:33.711Z,100164.97
2023-03-17T03:48:05.566Z,100160.44
2023-03-17T03:49:37.257Z,100168.28
2023-03-17T03:51:08.987Z,100164.66
2023-03-17T03:52:40.936Z,100166.56
2023-03-17T03:54:12.653Z,100161.47
2023-03-17T03:55:44.376Z,100158.81
2023-03-17T03:57:16.076Z,100157.94
2023-03-17T03:58:47.789Z,100157.94
2023-03-17T04:00:20.008Z,100168.28
2023-03-17T04:01:51.734Z,100161.06
2023-03-17T04:03:23.521Z,100153.06
2023-03-17T04:04:55.746Z,100149.47
2023-03-17T04:06:27.721Z,100140.69
2023-03-17T04:07:59.452Z,100140.78
2023-03-17T04:09:31.161Z,100144.38
2023-03-17T04:11:02.867Z,100138.34
2023-03-17T04:12:34.732Z,100149.78
2023-03-17T04:14:06.607Z,100146.00
2023-03-17T04:15:38.467Z,100152.28
2023-03-17T04:17:11.479Z,100152.28
2023-03-17T04:18:46.261Z,100153.94
2023-03-17T04:20:18.718Z,100146.97
2023-03-17T04:21:53.483Z,100148.66
2023-03-17T04:23:26.248Z,100142.66
2023-03-17T04:24:57.970Z,100152.44
2023-03-17T04:26:29.678Z,100144.47
2023-03-17T04:28:01.884Z,100150.66
2023-03-17T04:29:33.961Z,100150.81
2023-03-17T04:31:05.733Z,100157.00
2023-03-17T04:32:38.315Z,100149.31
2023-03-17T04:34:15.809Z,100161.72
2023-03-17T04:35:47.542Z,100158.28
2023-03-17T04:37:19.457Z,100153.03
2023-03-17T04:38:51.174Z,100145.97
2023-03-17T04:40:22.998Z,100140.81
2023-03-17T04:41:54.797Z,100133.88
2023-03-17T04:43:27.217Z,100129.72
2023-03-17T04:44:59.194Z,100121.78
2023-03-17T04:46:31.261Z,100129.25
2023-03-17T04:48:03.028Z,100123.94
2023-03-17T04:49:36.140Z,100124.03
2023-03-17T04:51:09.277Z,100135.53
2023-03-17T04:52:42.722Z,100135.69
2023-03-17T04:54:14.445Z,100130.63
2023-03-17T04:55:46.528Z,100122.00
2023-03-17T04:57:18.342Z,100122.69
2023-03-17T04:58:50.079Z,100127.16
2023-03-17T05:00:21.958Z,100119.88
2023-03-17T05:01:53.693Z,100108.47
2023-03-17T05:03:27.645Z,100109.63
2023-03-17T05:04:59.773Z,100108.69
2023-03-17T05:06:31.602Z,100100.78
2023-03-17T05:08:03.558Z,100097.34
2023-03-17T05:09:35.297Z,100092.28
2023-03-17T05:11:07.006Z,100107.84
2023-03-17T05:12:38.690Z,100101.66
2023-03-17T05:14:10.461Z,100096.56
2023-03-17T05:15:48.308Z,100098.44
2023-03-17T05:17:20.813Z,100101.72
2023-03-17T05:18:52.528Z,100094.94
2023-03-17T05:20:24.239Z,100095.78
2023-03-17T05:21:56.256Z,100100.09
2023-03-17T05:23:28.675Z,100097.28
2023-03-17T05:25:00.663Z,100105.88
2023-03-17T05:26:32.810Z,100106.97
2023-03-17T05:28:04.652Z,100119.34
2023-03-17T05:29:36.370Z,100117.31
2023-03-17T05:31:10.902Z,100113.69
2023-03-17T05:32:43.210Z,100105.00
2023-03-17T05:34:16.075Z,100099.59
2023-03-17T05:35:47.886Z,100104.75
2023-03-17T05:37:19.630Z,100105.00
2023-03-17T05:38:52.510Z,100099.44
2023-03-17T05:40:24.484Z,100107.56
2023-03-17T05:41:57.244Z,100108.22
2023-03-17T05:43:28.953Z,100103.84
2023-03-17T05:45:00.696Z,100096.94
2023-03-17T05:46:32.772Z,100107.66
2023-03-17T05:48:05.022Z,100102.97
2023-03-17T05:49:37.064Z,100098.56
2023-03-17T05:51:08.831Z,100114.38
2023-03-17T05:52:40.733Z,100109.75
2023-03-17T05:54:12.532Z,100126.75
2023-03-17T05:55:44.713Z,100126.06
2023-03-17T05:57:16.587Z,100127.53
2023-03-17T05:58:48.313Z,100139.03
2023-03-17T06:00:21.695Z,100139.56
2023-03-17T06:01:53.732Z,100129.78
2023-03-17T06:03:25.551Z,100130.72
2023-03-17T06:04:57.881Z,100135.19
2023-03-17T06:06:29.578Z,100137.97
2023-03-17T06:08:01.366Z,100128.88
2023-03-17T06:09:33.809Z,100122.59
2023-03-17T06:11:05.708Z,100125.00
2023-03-17T06:12:37.703Z,100130.41
2023-03-17T06:14:09.491Z,100130.31
2023-03-17T06:15:43.195Z,100129.41
2023-03-17T06:17:15.028Z,100125.94
2023-03-17T06:18:46.726Z,100131.19
2023-03-17T06:20:19.328Z,100126.56
2023-03-17T06:21:51.029Z,100130.72
2023-03-17T06:23:23.915Z,100141.06
2023-03-17T06:24:56.159Z,100149.53
2023-03-17T06:26:28.390Z,100139.72
2023-03-17T06:28:03.901Z,100140.47
2023-03-17T06:29:35.824Z,100138.59
2023-03-17T06:31:08.968Z,100135.69
2023-03-17T06:32:40.791Z,100138.50
2023-03-17T06:34:12.741Z,100141.16
2023-03-17T06:35:44.715Z,100149.88
2023-03-17T06:37:16.768Z,100146.97
2023-03-17T06:38:48.477Z,100146.88
2023-03-17T06:40:20.486Z,100140.31
2023-03-17T06:41:52.333Z,100134.88
2023-03-17T06:43:25.022Z,100130.34
2023-03-17T06:44:56.915Z,100141.00
2023-03-17T06:46:28.786Z,100152.03
2023-03-17T06:48:00.570Z,100151.06
2023-03-17T06:49:32.542Z,100151.16
2023-03-17T06:51:04.531Z,100158.78
2023-03-17T06:52:36.923Z,100158.72
2023-03-17T06:54:09.052Z,100159.09
2023-03-17T06:55:42.215Z,100165.09
2023-03-17T06:57:14.244Z,100162.94
2023-03-17T06:58:47.109Z,100169.94
2023-03-17T07:00:19.814Z,100165.00
2023-03-17T07:01:52.277Z,100157.69
2023-03-17T07:03:25.588Z,100156.50
2023-03-17T07:04:58.332Z,100145.13
2023-03-17T07:06:31.103Z,100152.00
2023-03-17T07:08:02.795Z,100149.78
2023-03-17T07:09:35.614Z,100137.81
2023-03-17T07:11:07.560Z,100130.66
2023-03-17T07:12:39.652Z,100123.94
2023-03-17T07:14:11.370Z,100118.41
2023-03-17T07:15:45.400Z,100115.41
2023-03-17T07:17:17.183Z,100114.06
2023-03-17T07:18:48.975Z,100116.56
2023-03-17T07:20:21.267Z,100124.38
2023-03-17T07:21:55.840Z,100128.59
2023-03-17T07:23:29.413Z,100127.44
2023-03-17T07:25:01.262Z,100119.84
2023-03-17T07:26:33.026Z,100110.69
2023-03-17T07:28:04.921Z,100113.97
2023-03-17T07:29:36.812Z,100107.38
2023-03-17T07:31:10.667Z,100097.66
2023-03-17T07:32:43.466Z,100095.28
2023-03-17T07:34:16.521Z,100098.53
2023-03-17T07:35:49.656Z,100091.38
2023-03-17T07:37:21.760Z,100081.84
2023-03-17T07:38:53.475Z,100080.59
2023-03-17T07:40:26.190Z,100078.31
2023-03-17T07:41:57.908Z,100085.28
2023-03-17T07:43:30.203Z,100097.56
2023-03-17T07:45:02.705Z,100086.50
2023-03-17T07:46:34.451Z,100090.31
2023-03-17T07:48:07.124Z,100095.84
2023-03-17T07:49:41.949Z,100080.78
2023-03-17T07:51:16.710Z,100079.06
2023-03-17T07:52:48.421Z,100069.13
2023-03-17T07:54:20.257Z,100058.91
2023-03-17T07:55:52.677Z,100062.75
2023-03-17T07:57:25.556Z,100069.53
2023-03-17T07:58:58.655Z,100072.28
2023-03-17T08:00:31.153Z,100064.72
2023-03-17T08:02:03.891Z,100067.59
2023-03-17T08:03:38.716Z,100077.91
2023-03-17T08:05:14.360Z,100075.94
2023-03-17T08:06:46.999Z,100064.53
2023-03-17T08:08:20.154Z,100079.56
2023-03-17T08:09:52.795Z,100076.31
2023-03-17T08:11:24.517Z,100071.44
2023-03-17T08:12:56.522Z,100070.84
2023-03-17T08:14:28.205Z,100069.88
2023-03-17T08:16:00.913Z,100077.31
2023-03-17T08:17:33.249Z,100060.31
2023-03-17T08:19:06.387Z,100065.06
2023-03-17T08:20:39.203Z,100061.41
2023-03-17T08:22:11.088Z,100045.94
2023-03-17T08:23:43.338Z,100058.19
2023-03-17T08:25:15.539Z,100044.41
2023-03-17T08:26:50.483Z,100045.47
2023-03-17T08:28:22.278Z,100054.91
2023-03-17T08:29:54.044Z,100048.72
2023-03-17T08:31:26.009Z,100049.06
2023-03-17T08:32:58.243Z,100049.50
2023-03-17T08:34:30.109Z,100050.06
2023-03-17T08:36:06.445Z,100035.47
2023-03-17T08:37:38.266Z,100034.84
2023-03-17T08:39:10.605Z,100035.28
2023-03-17T08:40:42.866Z,100033.78
2023-03-17T08:42:14.753Z,100036.56
2023-03-17T08:43:47.933Z,100045.59
2023-03-17T08:45:19.894Z,100042.25
2023-03-17T08:46:52.184Z,100042.06
2023-03-17T08:48:24.076Z,100044.19
2023-03-17T08:49:56.431Z,100039.16
2023-03-17T08:51:31.337Z,100049.44
2023-03-17T08:53:03.090Z,100038.50
2023-03-17T08:54:35.946Z,100030.03
2023-03-17T08:56:08.596Z,100022.75
2023-03-17T08:57:40.843Z,100025.66
2023-03-17T08:59:13.157Z,100024.13
2023-03-17T09:00:47.153Z,100027.69
2023-03-17T09:02:19.211Z,100038.06
2023-03-17T09:03:53.567Z,100022.91
2023-03-17T09:05:25.392Z,100036.31
2023-03-17T09:07:04.971Z,100032.94
2023-03-17T09:08:40.051Z,100021.78
2023-03-17T09:10:13.899Z,100033.03
2023-03-17T09:11:45.595Z,100019.50
2023-03-17T09:13:17.764Z,100018.31
2023-03-17T09:14:50.559Z,100012.38
2023-03-17T09:16:24.148Z,100024.25
2023-03-17T09:17:55.985Z,100030.13
2023-03-17T09:19:27.794Z,100020.88
2023-03-17T09:20:59.917Z,100024.22
2023-03-17T09:22:31.926Z,100031.97
2023-03-17T09:24:03.806Z,100027.13
2023-03-17T09:25:37.500Z,100033.75
2023-03-17T09:27:09.342Z,100023.78
2023-03-17T09:28:42.818Z,100038.34
2023-03-17T09:30:14.878Z,100037.94
2023-03-17T09:31:47.661Z,100033.72
2023-03-17T09:33:19.379Z,100025.28
2023-03-17T09:34:51.733Z,100023.25
2023-03-17T09:36:24.313Z,100017.63
2023-03-17T09:37:56.022Z,100023.25
2023-03-17T09:39:27.844Z,100025.22
2023-03-17T09:41:24.704Z,100006.75
2023-03-17T09:43:12.954Z,100014.69
2023-03-17T09:45:20.154Z,100011.63
2023-03-17T09:47:08.593Z,100018.59
2023-03-17T09:48:50.151Z,100017.22
2023-03-17T09:50:33.098Z,100015.44
2023-03-17T09:52:30.466Z,100008.84
2023-03-17T09:54:04.915Z,100029.19
2023-03-17T09:55:38.123Z,100021.41
2023-03-17T09:57:19.340Z,100024.03
2023-03-17T09:58:55.046Z,100016.47
2023-03-17T10:00:31.296Z,100018.78
2023-03-17T10:02:03.273Z,100024.84
2023-03-17T10:03:37.610Z,100024.63
2023-03-17T10:05:30.400Z,100020.13
2023-03-17T10:07:05.736Z,100002.59
2023-03-17T10:08:49.059Z,100007.72
2023-03-17T10:11:03.473Z,100009.22
2023-03-17T10:12:53.811Z,100018.66
2023-03-17T10:14:36.302Z,100007.44
2023-03-17T10:16:28.427Z,100006.38
2023-03-17T10:18:00.455Z,100002.66
2023-03-17T10:19:50.431Z,100000.53
2023-03-17T10:21:27.380Z,99995.72
2023-03-17T10:23:09.837Z,99995.84
2023-03-17T10:24:47.889Z,99997.81
2023-03-17T10:26:34.404Z,100005.22
2023-03-17T10:28:25.088Z,100000.63
2023-03-17T10:29:57.172Z,100003.06
2023-03-17T10:31:33.345Z,99999.88
2023-03-17T10:33:07.334Z,99994.72
2023-03-17T10:34:41.593Z,99998.81
2023-03-17T10:36:16.743Z,100000.59
2023-03-17T10:37:48.540Z,99999.88
2023-03-17T10:39:23.863Z,99986.72
2023-03-17T10:41:08.417Z,99999.97
2023-03-17T10:42:47.836Z,99991.44
2023-03-17T10:44:34.424Z,99996.88
2023-03-17T10:46:17.287Z,99998.50
2023-03-17T10:47:50.231Z,99984.91
2023-03-17T10:49:24.658Z,99991.78
2023-03-17T10:50:58.868Z,99985.16
2023-03-17T10:52:35.893Z,99986.72
2023-03-17T10:54:11.377Z,99988.72
2023-03-17T10:55:49.939Z,99979.75
2023-03-17T10:57:22.240Z,99987.41
2023-03-17T10:58:55.655Z,99994.38
2023-03-17T11:00:33.932Z,99984.38
2023-03-17T11:02:19.166Z,99984.00
2023-03-17T11:03:51.133Z,99988.41
2023-03-17T11:05:29.518Z,99986.25
2023-03-17T11:07:07.990Z,99970.09
2023-03-17T11:08:53.827Z,99971.25
2023-03-17T11:10:27.454Z,99970.31
2023-03-17T11:12:03.712Z,99972.63
2023-03-17T11:13:35.482Z,99968.13
2023-03-17T11:15:15.688Z,99975.34
2023-03-17T11:17:02.731Z,99967.47
2023-03-17T11:18:39.776Z,99976.66
2023-03-17T11:20:27.710Z,99970.38
2023-03-17T11:22:10.109Z,99969.50
2023-03-17T11:24:02.545Z,99954.31
2023-03-17T11:25:41.316Z,99961.16
2023-03-17T11:27:29.360Z,99967.03
2023-03-17T11:29:15.850Z,99969.13
2023-03-17T11:31:32.326Z,99973.34
2023-03-17T11:33:16.146Z,99964.63
2023-03-17T11:35:00.196Z,99951.56
2023-03-17T11:36:55.240Z,99952.97
2023-03-17T11:38:31.009Z,99961.53
2023-03-17T11:40:26.954Z,99954.06
2023-03-17T11:41:58.821Z,99946.31
2023-03-17T11:43:37.436Z,99942.91
2023-03-17T11:45:21.306Z,99949.03
2023-03-17T11:47:07.533Z,99951.34
2023-03-17T11:49:03.768Z,99944.63
2023-03-17T11:50:44.996Z,99953.94
2023-03-17T11:52:32.879Z,99952.78
2023-03-17T11:54:33.463Z,99945.81
2023-03-17T11:56:21.256Z,99945.50
2023-03-17T11:58:01.226Z,99948.41
2023-03-17T11:59:58.346Z,99941.44
2023-03-17T12:01:54.903Z,99952.53
2023-03-17T12:03:53.136Z,99946.75
2023-03-17T12:05:30.197Z,99946.75
2023-03-17T12:07:11.981Z,99940.28
2023-03-17T12:08:49.586Z,99941.28
2023-03-17T12:10:41.852Z,99949.63
2023-03-17T12:12:19.962Z,99945.56
2023-03-17T12:14:01.133Z,99927.88
2023-03-17T12:15:38.725Z,99930.63
2023-03-17T12:17:30.487Z,99922.81
2023-03-17T12:19:13.299Z,99918.09
2023-03-17T12:20:51.592Z,99908.97
2023-03-17T12:22:30.718Z,99916.44
2023-03-17T12:24:50.429Z,99907.59
2023-03-17T12:26:33.682Z,99904.22
2023-03-17T12:28:16.502Z,99904.56
2023-03-17T12:30:00.726Z,99905.41
2023-03-17T12:31:39.352Z,99901.66
2023-03-17T12:33:21.846Z,99901.97
2023-03-17T12:34:59.998Z,99899.59
2023-03-17T12:36:34.429Z,99895.53
2023-03-17T12:38:18.586Z,99886.84
2023-03-17T12:40:15.556Z,99896.00
2023-03-17T12:41:53.847Z,99892.25
2023-03-17T12:43:56.121Z,99899.03
2023-03-17T12:45:46.364Z,99893.28
2023-03-17T12:47:50.602Z,99889.53
2023-03-17T12:49:53.635Z,99888.13
2023-03-17T12:51:48.423Z,99900.31
2023-03-17T12:53:30.661Z,99898.63
2023-03-17T12:55:05.108Z,99897.84
2023-03-17T12:56:39.610Z,99891.22
2023-03-17T12:58:35.964Z,99897.22
2023-03-17T13:00:29.737Z,99903.50
2023-03-17T13:02:16.691Z,99898.72
2023-03-17T13:04:02.521Z,99892.75
2023-03-17T13:05:37.431Z,99894.78
2023-03-17T13:07:15.364Z,99889.00
2023-03-17T13:08:51.650Z,99890.16
2023-03-17T13:10:42.128Z,99878.56
2023-03-17T13:12:44.736Z,99877.72
2023-03-17T13:14:27.229Z,99875.44
2023-03-17T13:16:00.586Z,99882.09
2023-03-17T13:17:33.484Z,99860.22
2023-03-17T13:19:07.991Z,99872.25
2023-03-17T13:20:42.694Z,99860.22
2023-03-17T13:22:14.396Z,99856.00
2023-03-17T13:24:19.348Z,99852.75
2023-03-17T13:25:53.938Z,99848.00
2023-03-17T13:27:31.965Z,99845.28
2023-03-17T13:29:24.348Z,99844.47
2023-03-17T13:31:09.155Z,99836.53
2023-03-17T13:32:41.000Z,99832.28
2023-03-17T13:34:15.264Z,99832.38
2023-03-17T13:35:58.705Z,99831.00
2023-03-17T13:37:59.728Z,99837.06
2023-03-17T13:40:11.015Z,99839.75
2023-03-17T13:42:15.664Z,99829.09
2023-03-17T13:44:00.730Z,99841.69
2023-03-17T13:45:40.660Z,99846.25
2023-03-17T13:47:34.899Z,99844.16
2023-03-17T13:49:18.797Z,99854.56
2023-03-17T13:50:59.426Z,99852.75
2023-03-17T13:52:38.265Z,99851.41
2023-03-17T13:54:28.385Z,99857.25
2023-03-17T13:56:22.520Z,99841.75
2023-03-17T13:58:09.154Z,99846.22
2023-03-17T13:59:57.725Z,99843.28
2023-03-17T14:01:37.653Z,99838.34
2023-03-17T14:03:20.092Z,99840.50
2023-03-17T14:04:55.881Z,99833.44
2023-03-17T14:06:31.691Z,99836.84
2023-03-17T14:08:15.926Z,99823.94
2023-03-17T14:09:53.523Z,99840.91
2023-03-17T14:11:39.721Z,99828.69
2023-03-17T14:13:25.973Z,99830.91
2023-03-17T14:15:08.129Z,99829.88
2023-03-17T14:16:59.102Z,99829.31
2023-03-17T14:18:35.554Z,99831.31
2023-03-17T14:20:13.071Z,99834.94
2023-03-17T14:21:44.795Z,99829.66
2023-03-17T14:23:18.083Z,99825.59
2023-03-17T14:24:54.940Z,99834.41
2023-03-17T14:26:31.308Z,99830.16
2023-03-17T14:28:09.347Z,99824.22
2023-03-17T14:29:43.724Z,99819.13
2023-03-17T14:31:27.390Z,99818.78
2023-03-17T14:33:06.543Z,99814.06
2023-03-17T14:34:48.413Z,99813.72
2023-03-17T14:36:20.670Z,99806.63
2023-03-17T14:37:52.413Z,99802.75
2023-03-17T14:39:26.029Z,99805.16
2023-03-17T14:41:17.074Z,99803.38
2023-03-17T14:42:49.373Z,99806.63
2023-03-17T14:44:21.084Z,99795.59
2023-03-17T14:46:04.626Z,99801.84
2023-03-17T14:47:41.708Z,99804.75
2023-03-17T14:49:17.461Z,99808.50
2023-03-17T14:50:59.912Z,99802.91
2023-03-17T14:52:33.201Z,99798.81
2023-03-17T14:54:12.828Z,99801.69
2023-03-17T14:55:45.701Z,99792.03
2023-03-17T14:57:17.501Z,99796.09
2023-03-17T14:58:51.659Z,99793.50
2023-03-17T15:00:32.026Z,99797.25
2023-03-17T15:02:23.825Z,99790.25
2023-03-17T15:03:59.319Z,99783.19
2023-03-17T15:05:43.316Z,99782.34
2023-03-17T15:07:36.100Z,99788.94
2023-03-17T15:09:38.296Z,99783.75
2023-03-17T15:11:18.352Z,99777.63
2023-03-17T15:13:00.716Z,99778.53
2023-03-17T15:14:35.514Z,99773.31
2023-03-17T15:16:15.225Z,99770.53
2023-03-17T15:17:50.449Z,99777.81
2023-03-17T15:19:29.995Z,99767.16
2023-03-17T15:21:01.776Z,99773.97
2023-03-17T15:22:36.222Z,99774.06
2023-03-17T15:24:25.605Z,99776.69
2023-03-17T15:25:57.413Z,99783.13
2023-03-17T15:27:31.350Z,99776.69
2023-03-17T15:29:03.201Z,99777.38
2023-03-17T15:30:46.861Z,99774.31
2023-03-17T15:32:22.283Z,99780.94
2023-03-17T15:33:54.208Z,99781.94
2023-03-17T15:35:27.391Z,99785.13
2023-03-17T15:36:59.296Z,99794.13
2023-03-17T15:38:31.928Z,99782.53
2023-03-17T15:40:09.472Z,99777.44
2023-03-17T15:41:41.391Z,99782.13
2023-03-17T15:43:17.970Z,99780.03
2023-03-17T15:44:49.832Z,99777.53
2023-03-17T15:46:27.399Z,99791.50
2023-03-17T15:47:59.595Z,99783.38
2023-03-17T15:49:31.363Z,99789.50
2023-03-17T15:51:03.509Z,99781.00
2023-03-17T15:52:35.943Z,99790.81
2023-03-17T15:54:12.939Z,99786.16
2023-03-17T15:55:45.121Z,99786.75
2023-03-17T15:57:17.358Z,99789.31
2023-03-17T15:58:52.509Z,99792.88
2023-03-17T16:00:30.055Z,99786.06
2023-03-17T16:02:02.498Z,99777.41
2023-03-17T16:03:37.167Z,99777.94
2023-03-17T16:05:21.797Z,99774.28
2023-03-17T16:06:53.535Z,99773.13
2023-03-17T16:08:25.524Z,99771.72
2023-03-17T16:09:57.955Z,99772.56
2023-03-17T16:11:31.452Z,99778.69
2023-03-17T16:13:03.257Z,99768.75
2023-03-17T16:14:34.986Z,99771.75
2023-03-17T16:16:10.413Z,99766.06
2023-03-17T16:17:43.362Z,99771.03
2023-03-17T16:19:21.797Z,99776.28
2023-03-17T16:20:54.062Z,99762.91
2023-03-17T16:22:31.804Z,99762.09
2023-03-17T16:24:04.479Z,99760.69
2023-03-17T16:25:36.929Z,99760.56
2023-03-17T16:27:15.209Z,99759.28
2023-03-17T16:28:49.146Z,99760.97
2023-03-17T16:30:24.265Z,99758.84
2023-03-17T16:31:56.318Z,99757.00
2023-03-17T16:33:32.525Z,99757.59
2023-03-17T16:35:13.041Z,99758.44
2023-03-17T16:36:44.764Z,99762.38
2023-03-17T16:38:19.508Z,99761.97
2023-03-17T16:39:52.390Z,99751.91
2023-03-17T16:41:27.758Z,99762.72
2023-03-17T16:42:59.562Z,99766.09
2023-03-17T16:44:31.587Z,99767.78
2023-03-17T16:46:05.804Z,99773.50
2023-03-17T16:47:37.593Z,99768.94
2023-03-17T16:49:13.795Z,99770.47
2023-03-17T16:50:45.572Z,99766.91
2023-03-17T16:52:17.280Z,99762.09
2023-03-17T16:53:49.021Z,99768.63
2023-03-17T16:55:25.477Z,99758.38
2023-03-17T16:56:57.589Z,99768.56
2023-03-17T16:58:33.124Z,99766.84
2023-03-17T17:00:07.098Z,99766.97
2023-03-17T17:01:38.846Z,99770.22
2023-03-17T17:03:11.318Z,99767.53
2023-03-17T17:04:43.677Z,99768.81
2023-03-17T17:06:15.614Z,99771.19
2023-03-17T17:07:48.694Z,99772.44
2023-03-17T17:09:20.461Z,99782.91
2023-03-17T17:10:52.732Z,99774.97
2023-03-17T17:12:24.886Z,99772.81
2023-03-17T17:13:58.525Z,99770.41
2023-03-17T17:15:31.912Z,99772.50
2023-03-17T17:17:04.496Z,99772.66
2023-03-17T17:18:37.896Z,99774.88
2023-03-17T17:20:21.528Z,99775.69
2023-03-17T17:21:53.813Z,99774.53
2023-03-17T17:23:27.104Z,99766.56
2023-03-17T17:24:58.899Z,99770.25
2023-03-17T17:26:30.684Z,99769.94
2023-03-17T17:28:03.122Z,99773.63
2023-03-17T17:29:34.931Z,99769.94
2023-03-17T17:31:08.510Z,99773.63
2023-03-17T17:32:40.298Z,99768.78
2023-03-17T17:34:12.009Z,99772.84
2023-03-17T17:35:44.504Z,99770.56
2023-03-17T17:37:17.037Z,99769.56
2023-03-17T17:38:49.163Z,99777.16
2023-03-17T17:40:24.593Z,99764.59
2023-03-17T17:41:56.869Z,99761.00
2023-03-17T17:43:29.432Z,99761.53
2023-03-17T17:45:01.228Z,99766.19
2023-03-17T17:46:33.791Z,99767.19
2023-03-17T17:48:05.746Z,99764.75
2023-03-17T17:49:37.854Z,99764.75
2023-03-17T17:51:09.664Z,99762.59
2023-03-17T17:52:41.413Z,99755.63
2023-03-17T17:54:13.153Z,99759.56
2023-03-17T17:55:46.946Z,99756.28
2023-03-17T17:57:19.044Z,99763.34
2023-03-17T17:58:51.492Z,99759.69
2023-03-17T18:00:24.123Z,99759.22
2023-03-17T18:01:56.581Z,99752.84
2023-03-17T18:03:31.545Z,99758.50
2023-03-17T18:05:06.010Z,99756.06
2023-03-17T18:06:38.598Z,99759.00
2023-03-17T18:08:13.680Z,99754.63
2023-03-17T18:09:45.497Z,99757.56
2023-03-17T18:11:18.054Z,99757.56
2023-03-17T18:12:50.396Z,99758.69
2023-03-17T18:14:22.753Z,99763.47
2023-03-17T18:15:54.568Z,99759.59
2023-03-17T18:17:27.379Z,99760.31
2023-03-17T18:19:00.468Z,99758.84
2023-03-17T18:20:32.591Z,99758.84
2023-03-17T18:22:05.057Z,99749.81
2023-03-17T18:23:37.117Z,99757.16
2023-03-17T18:25:11.345Z,99750.06
2023-03-17T18:26:43.188Z,99748.09